Decoded Metar for DTTZ (TOZEUR in TUNISIA) (IATA:TOE) | Meteo·Mobile Aviation Weather
aviador You're here:

DTTZ Decoded Metar

TOZEUR in TUNISIA
Report Time2019-06-20 07:00:00
UTC Time2019-06-20 07:31:16
Flight Rules vfr VFR
Wind100° at 13 kt
W.Decomp.*RWY 09: 12.8 kt HW 2.0 kt RCW
Visibility9999 m
Phenomena:N/A
Clouds:N/A
Expected CloudBase > 5,200 ft AGL from Temp-Dew spread
CeilingNone
Temp30°C (ISA +16)
Dew Point17°C (46% RH)
Heat Index30.5°C
AAT27.7°C
QNH1013 hPa
Density Alt2,352 ft
Elevation305 ft
Report Wrong Elevation
Raw Report
METAR DTTZ 200700Z 10013KT CAVOK 30/17 Q1013 NOSIG=

Extra information for DTTZ:More info

Metar Taf Metar & Taf Last 4 Metars F.Rules Stats Wind Profile Meteogram Temp Stats Airport Information Weather charts Add Link Nearby VenuesMetar ALERT Operation Metar Decoded Social comments